sensor_id;sensor_type;location;lat;lon;timestamp;P1;durP1;ratioP1;P2;durP2;ratioP2
47519;SDS011;33252;48.122;11.538;2024-03-02T00:02:24;12.32;;;8.30;;
47519;SDS011;33252;48.122;11.538;2024-03-02T00:04:50;12.18;;;8.07;;
47519;SDS011;33252;48.122;11.538;2024-03-02T00:07:16;12.70;;;8.60;;
47519;SDS011;33252;48.122;11.538;2024-03-02T00:09:42;14.23;;;8.68;;
47519;SDS011;33252;48.122;11.538;2024-03-02T00:12:10;12.65;;;8.70;;
47519;SDS011;33252;48.122;11.538;2024-03-02T00:14:40;11.68;;;8.75;;
47519;SDS011;33252;48.122;11.538;2024-03-02T00:17:05;12.88;;;9.27;;
47519;SDS011;33252;48.122;11.538;2024-03-02T00:19:39;13.30;;;8.63;;
47519;SDS011;33252;48.122;11.538;2024-03-02T00:22:05;13.15;;;8.82;;
47519;SDS011;33252;48.122;11.538;2024-03-02T00:24:33;13.98;;;9.18;;
47519;SDS011;33252;48.122;11.538;2024-03-02T00:26:59;14.30;;;9.40;;
47519;SDS011;33252;48.122;11.538;2024-03-02T00:29:26;13.93;;;9.55;;
47519;SDS011;33252;48.122;11.538;2024-03-02T00:31:54;14.45;;;10.25;;
47519;SDS011;33252;48.122;11.538;2024-03-02T00:34:20;17.23;;;9.25;;
47519;SDS011;33252;48.122;11.538;2024-03-02T00:36:47;12.27;;;8.82;;
47519;SDS011;33252;48.122;11.538;2024-03-02T00:39:14;12.52;;;8.00;;
47519;SDS011;33252;48.122;11.538;2024-03-02T00:41:42;12.00;;;8.20;;
47519;SDS011;33252;48.122;11.538;2024-03-02T00:44:07;11.80;;;8.70;;
47519;SDS011;33252;48.122;11.538;2024-03-02T00:46:37;11.98;;;7.90;;
47519;SDS011;33252;48.122;11.538;2024-03-02T00:49:17;11.32;;;8.40;;
47519;SDS011;33252;48.122;11.538;2024-03-02T00:51:48;13.27;;;8.57;;
47519;SDS011;33252;48.122;11.538;2024-03-02T00:54:21;12.80;;;7.63;;
47519;SDS011;33252;48.122;11.538;2024-03-02T00:56:49;11.65;;;8.30;;
47519;SDS011;33252;48.122;11.538;2024-03-02T00:59:15;13.20;;;8.43;;
47519;SDS011;33252;48.122;11.538;2024-03-02T01:01:40;12.50;;;8.63;;
47519;SDS011;33252;48.122;11.538;2024-03-02T01:04:07;10.15;;;8.07;;
47519;SDS011;33252;48.122;11.538;2024-03-02T01:06:32;14.75;;;9.13;;
47519;SDS011;33252;48.122;11.538;2024-03-02T01:08:58;12.30;;;8.40;;
47519;SDS011;33252;48.122;11.538;2024-03-02T01:11:24;12.35;;;8.38;;
47519;SDS011;33252;48.122;11.538;2024-03-02T01:13:50;12.38;;;9.02;;
47519;SDS011;33252;48.122;11.538;2024-03-02T01:16:16;13.43;;;8.80;;
47519;SDS011;33252;48.122;11.538;2024-03-02T01:18:42;13.63;;;8.93;;
47519;SDS011;33252;48.122;11.538;2024-03-02T01:21:08;14.20;;;9.30;;
47519;SDS011;33252;48.122;11.538;2024-03-02T01:23:33;13.73;;;9.30;;
47519;SDS011;33252;48.122;11.538;2024-03-02T01:25:59;12.10;;;8.82;;
47519;SDS011;33252;48.122;11.538;2024-03-02T01:28:24;11.63;;;8.32;;
47519;SDS011;33252;48.122;11.538;2024-03-02T01:30:50;11.90;;;8.00;;
47519;SDS011;33252;48.122;11.538;2024-03-02T01:33:19;12.93;;;8.65;;
47519;SDS011;33252;48.122;11.538;2024-03-02T01:35:45;13.45;;;9.13;;
47519;SDS011;33252;48.122;11.538;2024-03-02T01:38:11;14.10;;;10.10;;
47519;SDS011;33252;48.122;11.538;2024-03-02T01:40:37;12.48;;;9.30;;
47519;SDS011;33252;48.122;11.538;2024-03-02T01:43:06;12.68;;;8.98;;
47519;SDS011;33252;48.122;11.538;2024-03-02T01:45:32;15.60;;;8.88;;
47519;SDS011;33252;48.122;11.538;2024-03-02T01:47:58;11.75;;;8.10;;
47519;SDS011;33252;48.122;11.538;2024-03-02T01:50:25;11.32;;;7.60;;
47519;SDS011;33252;48.122;11.538;2024-03-02T01:52:57;13.90;;;8.85;;
47519;SDS011;33252;48.122;11.538;2024-03-02T01:55:23;11.25;;;8.48;;
47519;SDS011;33252;48.122;11.538;2024-03-02T01:57:49;12.90;;;9.32;;
47519;SDS011;33252;48.122;11.538;2024-03-02T02:00:16;13.25;;;7.63;;
47519;SDS011;33252;48.122;11.538;2024-03-02T02:02:42;10.98;;;7.63;;
47519;SDS011;33252;48.122;11.538;2024-03-02T02:08:07;11.65;;;7.70;;
47519;SDS011;33252;48.122;11.538;2024-03-02T02:10:32;12.80;;;7.15;;
47519;SDS011;33252;48.122;11.538;2024-03-02T02:12:58;11.70;;;7.78;;
47519;SDS011;33252;48.122;11.538;2024-03-02T02:17:52;12.48;;;7.95;;
47519;SDS011;33252;48.122;11.538;2024-03-02T02:20:18;14.30;;;8.30;;
47519;SDS011;33252;48.122;11.538;2024-03-02T02:22:59;11.93;;;7.85;;
47519;SDS011;33252;48.122;11.538;2024-03-02T02:25:27;11.63;;;8.32;;
47519;SDS011;33252;48.122;11.538;2024-03-02T02:27:54;11.63;;;7.22;;
47519;SDS011;33252;48.122;11.538;2024-03-02T02:30:21;10.65;;;7.13;;
47519;SDS011;33252;48.122;11.538;2024-03-02T02:32:51;12.07;;;8.23;;
47519;SDS011;33252;48.122;11.538;2024-03-02T02:35:17;11.50;;;7.82;;
47519;SDS011;33252;48.122;11.538;2024-03-02T02:37:42;12.32;;;8.07;;
47519;SDS011;33252;48.122;11.538;2024-03-02T02:40:11;11.35;;;7.85;;
47519;SDS011;33252;48.122;11.538;2024-03-02T02:42:38;11.75;;;7.53;;
47519;SDS011;33252;48.122;11.538;2024-03-02T02:45:04;11.55;;;8.10;;
47519;SDS011;33252;48.122;11.538;2024-03-02T02:47:30;11.15;;;7.57;;
47519;SDS011;33252;48.122;11.538;2024-03-02T02:49:58;12.55;;;8.18;;
47519;SDS011;33252;48.122;11.538;2024-03-02T02:52:24;13.55;;;7.72;;
47519;SDS011;33252;48.122;11.538;2024-03-02T02:54:49;12.07;;;7.75;;
47519;SDS011;33252;48.122;11.538;2024-03-02T02:57:16;11.80;;;7.50;;
47519;SDS011;33252;48.122;11.538;2024-03-02T02:59:41;11.43;;;8.27;;
47519;SDS011;33252;48.122;11.538;2024-03-02T03:02:07;11.20;;;8.35;;
47519;SDS011;33252;48.122;11.538;2024-03-02T03:04:32;14.55;;;9.25;;
47519;SDS011;33252;48.122;11.538;2024-03-02T03:06:58;12.27;;;8.55;;
47519;SDS011;33252;48.122;11.538;2024-03-02T03:09:23;12.13;;;8.65;;
47519;SDS011;33252;48.122;11.538;2024-03-02T03:11:49;13.45;;;8.82;;
47519;SDS011;33252;48.122;11.538;2024-03-02T03:14:14;15.18;;;8.80;;
47519;SDS011;33252;48.122;11.538;2024-03-02T03:16:40;12.68;;;8.80;;
47519;SDS011;33252;48.122;11.538;2024-03-02T03:19:05;14.68;;;9.45;;
47519;SDS011;33252;48.122;11.538;2024-03-02T03:21:31;13.68;;;8.25;;
47519;SDS011;33252;48.122;11.538;2024-03-02T03:23:56;15.48;;;10.63;;
47519;SDS011;33252;48.122;11.538;2024-03-02T03:26:22;17.77;;;9.60;;
47519;SDS011;33252;48.122;11.538;2024-03-02T03:28:47;14.25;;;9.07;;
47519;SDS011;33252;48.122;11.538;2024-03-02T03:31:13;13.85;;;8.95;;
47519;SDS011;33252;48.122;11.538;2024-03-02T03:33:39;12.77;;;9.57;;
47519;SDS011;33252;48.122;11.538;2024-03-02T03:36:04;15.77;;;10.93;;
47519;SDS011;33252;48.122;11.538;2024-03-02T03:38:30;15.30;;;10.27;;
47519;SDS011;33252;48.122;11.538;2024-03-02T03:40:55;17.92;;;11.30;;
47519;SDS011;33252;48.122;11.538;2024-03-02T03:43:21;16.83;;;10.75;;
47519;SDS011;33252;48.122;11.538;2024-03-02T03:45:47;18.00;;;10.43;;
47519;SDS011;33252;48.122;11.538;2024-03-02T03:48:12;17.60;;;11.75;;
47519;SDS011;33252;48.122;11.538;2024-03-02T03:50:38;16.85;;;10.52;;
47519;SDS011;33252;48.122;11.538;2024-03-02T03:53:03;14.05;;;9.30;;
47519;SDS011;33252;48.122;11.538;2024-03-02T03:55:29;16.90;;;10.30;;
47519;SDS011;33252;48.122;11.538;2024-03-02T03:57:54;14.68;;;10.43;;
47519;SDS011;33252;48.122;11.538;2024-03-02T04:00:20;17.23;;;11.07;;
47519;SDS011;33252;48.122;11.538;2024-03-02T04:02:45;14.63;;;10.70;;
47519;SDS011;33252;48.122;11.538;2024-03-02T04:05:11;15.40;;;10.15;;
47519;SDS011;33252;48.122;11.538;2024-03-02T04:07:37;15.65;;;10.88;;
47519;SDS011;33252;48.122;11.538;2024-03-02T04:10:09;16.38;;;10.93;;
47519;SDS011;33252;48.122;11.538;2024-03-02T04:12:36;13.65;;;11.10;;
47519;SDS011;33252;48.122;11.538;2024-03-02T04:15:02;16.10;;;10.20;;
47519;SDS011;33252;48.122;11.538;2024-03-02T04:17:32;16.05;;;11.45;;
47519;SDS011;33252;48.122;11.538;2024-03-02T04:19:58;14.82;;;10.50;;
47519;SDS011;33252;48.122;11.538;2024-03-02T04:22:25;16.77;;;10.70;;
47519;SDS011;33252;48.122;11.538;2024-03-02T04:24:51;15.15;;;10.00;;
47519;SDS011;33252;48.122;11.538;2024-03-02T04:27:16;17.98;;;10.20;;
47519;SDS011;33252;48.122;11.538;2024-03-02T04:29:42;16.00;;;10.90;;
47519;SDS011;33252;48.122;11.538;2024-03-02T04:32:07;20.08;;;11.02;;
47519;SDS011;33252;48.122;11.538;2024-03-02T04:34:33;16.35;;;11.57;;
47519;SDS011;33252;48.122;11.538;2024-03-02T04:36:58;19.95;;;11.07;;
47519;SDS011;33252;48.122;11.538;2024-03-02T04:39:25;18.20;;;11.55;;
47519;SDS011;33252;48.122;11.538;2024-03-02T04:41:51;15.48;;;10.23;;
47519;SDS011;33252;48.122;11.538;2024-03-02T04:44:16;15.95;;;11.10;;
47519;SDS011;33252;48.122;11.538;2024-03-02T04:46:42;16.10;;;11.07;;
47519;SDS011;33252;48.122;11.538;2024-03-02T04:49:08;18.20;;;10.52;;
47519;SDS011;33252;48.122;11.538;2024-03-02T04:51:33;18.08;;;12.20;;
47519;SDS011;33252;48.122;11.538;2024-03-02T04:53:59;16.98;;;10.75;;
47519;SDS011;33252;48.122;11.538;2024-03-02T04:56:24;15.52;;;10.60;;
47519;SDS011;33252;48.122;11.538;2024-03-02T04:59:08;16.80;;;11.40;;
47519;SDS011;33252;48.122;11.538;2024-03-02T05:01:34;18.30;;;11.23;;
47519;SDS011;33252;48.122;11.538;2024-03-02T05:03:59;17.95;;;11.30;;
47519;SDS011;33252;48.122;11.538;2024-03-02T05:06:25;17.42;;;12.27;;
47519;SDS011;33252;48.122;11.538;2024-03-02T05:08:50;19.35;;;11.50;;
47519;SDS011;33252;48.122;11.538;2024-03-02T05:11:16;15.55;;;10.70;;
47519;SDS011;33252;48.122;11.538;2024-03-02T05:14:00;16.30;;;11.23;;
47519;SDS011;33252;48.122;11.538;2024-03-02T05:16:25;16.65;;;11.25;;
47519;SDS011;33252;48.122;11.538;2024-03-02T05:18:51;18.35;;;12.43;;
47519;SDS011;33252;48.122;11.538;2024-03-02T05:21:16;17.92;;;11.32;;
47519;SDS011;33252;48.122;11.538;2024-03-02T05:23:42;17.30;;;11.80;;
47519;SDS011;33252;48.122;11.538;2024-03-02T05:26:07;16.67;;;11.10;;
47519;SDS011;33252;48.122;11.538;2024-03-02T05:28:33;14.73;;;10.48;;
47519;SDS011;33252;48.122;11.538;2024-03-02T05:30:58;18.95;;;11.93;;
47519;SDS011;33252;48.122;11.538;2024-03-02T05:33:24;20.48;;;12.63;;
47519;SDS011;33252;48.122;11.538;2024-03-02T05:35:49;17.70;;;11.75;;
47519;SDS011;33252;48.122;11.538;2024-03-02T05:38:15;16.90;;;11.85;;
47519;SDS011;33252;48.122;11.538;2024-03-02T05:40:41;15.70;;;10.85;;
47519;SDS011;33252;48.122;11.538;2024-03-02T05:43:07;18.75;;;12.55;;
47519;SDS011;33252;48.122;11.538;2024-03-02T05:45:32;19.73;;;12.25;;
47519;SDS011;33252;48.122;11.538;2024-03-02T05:47:58;19.67;;;11.40;;
47519;SDS011;33252;48.122;11.538;2024-03-02T05:50:23;18.77;;;12.45;;
47519;SDS011;33252;48.122;11.538;2024-03-02T05:52:49;17.88;;;12.52;;
47519;SDS011;33252;48.122;11.538;2024-03-02T05:55:14;16.58;;;11.82;;
47519;SDS011;33252;48.122;11.538;2024-03-02T05:57:40;18.52;;;12.25;;
47519;SDS011;33252;48.122;11.538;2024-03-02T06:00:05;17.58;;;11.90;;
47519;SDS011;33252;48.122;11.538;2024-03-02T06:02:33;22.95;;;12.85;;
47519;SDS011;33252;48.122;11.538;2024-03-02T06:05:00;22.02;;;13.40;;
47519;SDS011;33252;48.122;11.538;2024-03-02T06:07:25;21.02;;;13.65;;
47519;SDS011;33252;48.122;11.538;2024-03-02T06:09:51;22.98;;;13.63;;
47519;SDS011;33252;48.122;11.538;2024-03-02T06:12:17;21.25;;;13.98;;
47519;SDS011;33252;48.122;11.538;2024-03-02T06:14:43;22.75;;;13.20;;
47519;SDS011;33252;48.122;11.538;2024-03-02T06:17:09;25.88;;;14.27;;
47519;SDS011;33252;48.122;11.538;2024-03-02T06:19:35;24.42;;;15.35;;
47519;SDS011;33252;48.122;11.538;2024-03-02T06:22:00;21.80;;;14.25;;
47519;SDS011;33252;48.122;11.538;2024-03-02T06:24:26;22.33;;;14.07;;
47519;SDS011;33252;48.122;11.538;2024-03-02T06:26:51;22.33;;;14.60;;
47519;SDS011;33252;48.122;11.538;2024-03-02T06:29:17;20.77;;;14.27;;
47519;SDS011;33252;48.122;11.538;2024-03-02T06:31:42;25.70;;;14.65;;
47519;SDS011;33252;48.122;11.538;2024-03-02T06:34:08;18.60;;;12.93;;
47519;SDS011;33252;48.122;11.538;2024-03-02T06:36:33;25.38;;;13.65;;
47519;SDS011;33252;48.122;11.538;2024-03-02T06:38:59;20.55;;;13.75;;
47519;SDS011;33252;48.122;11.538;2024-03-02T06:41:25;18.67;;;12.90;;
47519;SDS011;33252;48.122;11.538;2024-03-02T06:43:51;21.20;;;14.27;;
47519;SDS011;33252;48.122;11.538;2024-03-02T06:46:24;21.60;;;13.55;;
47519;SDS011;33252;48.122;11.538;2024-03-02T06:48:52;21.13;;;12.93;;
47519;SDS011;33252;48.122;11.538;2024-03-02T06:51:18;19.75;;;13.60;;
47519;SDS011;33252;48.122;11.538;2024-03-02T06:53:43;23.17;;;13.13;;
47519;SDS011;33252;48.122;11.538;2024-03-02T06:56:09;24.15;;;14.25;;
47519;SDS011;33252;48.122;11.538;2024-03-02T06:58:34;20.90;;;13.88;;
47519;SDS011;33252;48.122;11.538;2024-03-02T07:01:00;17.75;;;13.38;;
47519;SDS011;33252;48.122;11.538;2024-03-02T07:03:25;23.27;;;13.80;;
47519;SDS011;33252;48.122;11.538;2024-03-02T07:05:51;22.67;;;14.10;;
47519;SDS011;33252;48.122;11.538;2024-03-02T07:08:16;23.95;;;14.93;;
47519;SDS011;33252;48.122;11.538;2024-03-02T07:10:42;22.35;;;14.10;;
47519;SDS011;33252;48.122;11.538;2024-03-02T07:13:08;22.25;;;14.68;;
47519;SDS011;33252;48.122;11.538;2024-03-02T07:15:33;23.55;;;14.88;;
47519;SDS011;33252;48.122;11.538;2024-03-02T07:18:01;25.85;;;15.45;;
47519;SDS011;33252;48.122;11.538;2024-03-02T07:20:28;26.70;;;14.88;;
47519;SDS011;33252;48.122;11.538;2024-03-02T07:22:53;22.25;;;14.55;;
47519;SDS011;33252;48.122;11.538;2024-03-02T07:25:19;23.45;;;14.75;;
47519;SDS011;33252;48.122;11.538;2024-03-02T07:27:44;25.95;;;15.85;;
47519;SDS011;33252;48.122;11.538;2024-03-02T07:30:13;30.17;;;17.70;;
47519;SDS011;33252;48.122;11.538;2024-03-02T07:32:41;25.27;;;15.43;;
47519;SDS011;33252;48.122;11.538;2024-03-02T07:35:10;24.30;;;16.17;;
47519;SDS011;33252;48.122;11.538;2024-03-02T07:37:36;26.65;;;16.58;;
47519;SDS011;33252;48.122;11.538;2024-03-02T07:40:02;27.33;;;15.65;;
47519;SDS011;33252;48.122;11.538;2024-03-02T07:42:28;27.73;;;16.75;;
47519;SDS011;33252;48.122;11.538;2024-03-02T07:44:54;27.58;;;16.05;;
47519;SDS011;33252;48.122;11.538;2024-03-02T07:47:19;26.40;;;16.60;;
47519;SDS011;33252;48.122;11.538;2024-03-02T07:49:45;28.20;;;16.45;;
47519;SDS011;33252;48.122;11.538;2024-03-02T07:52:11;32.38;;;16.88;;
47519;SDS011;33252;48.122;11.538;2024-03-02T07:54:37;25.73;;;15.10;;
47519;SDS011;33252;48.122;11.538;2024-03-02T07:57:02;27.48;;;16.50;;
47519;SDS011;33252;48.122;11.538;2024-03-02T07:59:28;27.92;;;15.85;;
47519;SDS011;33252;48.122;11.538;2024-03-02T08:01:54;26.63;;;16.30;;
47519;SDS011;33252;48.122;11.538;2024-03-02T08:04:20;24.45;;;14.35;;
47519;SDS011;33252;48.122;11.538;2024-03-02T08:06:45;23.35;;;14.02;;
47519;SDS011;33252;48.122;11.538;2024-03-02T08:09:12;28.55;;;15.27;;
47519;SDS011;33252;48.122;11.538;2024-03-02T08:11:37;23.77;;;13.65;;
47519;SDS011;33252;48.122;11.538;2024-03-02T08:14:03;21.23;;;13.35;;
47519;SDS011;33252;48.122;11.538;2024-03-02T08:16:29;19.30;;;12.05;;
47519;SDS011;33252;48.122;11.538;2024-03-02T08:18:55;18.45;;;11.02;;
47519;SDS011;33252;48.122;11.538;2024-03-02T08:21:23;19.83;;;12.02;;
47519;SDS011;33252;48.122;11.538;2024-03-02T08:23:49;19.65;;;11.45;;
47519;SDS011;33252;48.122;11.538;2024-03-02T08:26:14;19.95;;;12.43;;
47519;SDS011;33252;48.122;11.538;2024-03-02T08:28:40;19.23;;;10.77;;
47519;SDS011;33252;48.122;11.538;2024-03-02T08:31:06;17.77;;;10.82;;
47519;SDS011;33252;48.122;11.538;2024-03-02T08:33:32;16.63;;;10.88;;
47519;SDS011;33252;48.122;11.538;2024-03-02T08:35:58;17.17;;;10.68;;
47519;SDS011;33252;48.122;11.538;2024-03-02T08:38:24;17.05;;;10.57;;
47519;SDS011;33252;48.122;11.538;2024-03-02T08:40:49;17.80;;;9.48;;
47519;SDS011;33252;48.122;11.538;2024-03-02T08:43:15;18.63;;;10.63;;
47519;SDS011;33252;48.122;11.538;2024-03-02T08:45:40;18.10;;;10.95;;
47519;SDS011;33252;48.122;11.538;2024-03-02T08:48:09;18.75;;;10.90;;
47519;SDS011;33252;48.122;11.538;2024-03-02T08:50:35;18.88;;;11.75;;
47519;SDS011;33252;48.122;11.538;2024-03-02T08:53:01;18.15;;;11.05;;
47519;SDS011;33252;48.122;11.538;2024-03-02T08:55:30;19.00;;;11.73;;
47519;SDS011;33252;48.122;11.538;2024-03-02T08:57:56;20.17;;;11.68;;
47519;SDS011;33252;48.122;11.538;2024-03-02T09:00:22;18.85;;;12.10;;
47519;SDS011;33252;48.122;11.538;2024-03-02T09:02:48;16.52;;;12.30;;
47519;SDS011;33252;48.122;11.538;2024-03-02T09:05:13;21.10;;;10.95;;
47519;SDS011;33252;48.122;11.538;2024-03-02T09:07:39;16.80;;;11.75;;
47519;SDS011;33252;48.122;11.538;2024-03-02T09:10:05;18.13;;;10.65;;
47519;SDS011;33252;48.122;11.538;2024-03-02T09:12:32;15.57;;;9.73;;
47519;SDS011;33252;48.122;11.538;2024-03-02T09:14:58;18.30;;;11.23;;
47519;SDS011;33252;48.122;11.538;2024-03-02T09:17:25;21.58;;;13.30;;
47519;SDS011;33252;48.122;11.538;2024-03-02T09:19:50;16.10;;;10.55;;
47519;SDS011;33252;48.122;11.538;2024-03-02T09:22:19;18.80;;;12.95;;
47519;SDS011;33252;48.122;11.538;2024-03-02T09:24:45;19.08;;;13.02;;
47519;SDS011;33252;48.122;11.538;2024-03-02T09:27:10;19.98;;;13.75;;
47519;SDS011;33252;48.122;11.538;2024-03-02T09:29:36;19.55;;;12.88;;
47519;SDS011;33252;48.122;11.538;2024-03-02T09:32:02;19.25;;;12.18;;
47519;SDS011;33252;48.122;11.538;2024-03-02T09:34:28;18.77;;;12.15;;
47519;SDS011;33252;48.122;11.538;2024-03-02T09:36:53;20.25;;;13.18;;
47519;SDS011;33252;48.122;11.538;2024-03-02T09:39:19;20.45;;;12.35;;
47519;SDS011;33252;48.122;11.538;2024-03-02T09:41:45;16.50;;;11.80;;
47519;SDS011;33252;48.122;11.538;2024-03-02T09:44:11;17.65;;;12.50;;
47519;SDS011;33252;48.122;11.538;2024-03-02T09:46:37;17.50;;;11.35;;
47519;SDS011;33252;48.122;11.538;2024-03-02T09:49:02;16.27;;;10.82;;
47519;SDS011;33252;48.122;11.538;2024-03-02T09:51:28;18.38;;;10.93;;
47519;SDS011;33252;48.122;11.538;2024-03-02T09:53:54;15.18;;;9.55;;
47519;SDS011;33252;48.122;11.538;2024-03-02T09:56:21;15.05;;;9.13;;
47519;SDS011;33252;48.122;11.538;2024-03-02T09:58:47;13.88;;;9.10;;
47519;SDS011;33252;48.122;11.538;2024-03-02T10:01:12;13.60;;;8.75;;
47519;SDS011;33252;48.122;11.538;2024-03-02T10:03:38;13.48;;;8.63;;
47519;SDS011;33252;48.122;11.538;2024-03-02T10:06:20;13.43;;;9.40;;
47519;SDS011;33252;48.122;11.538;2024-03-02T10:08:46;12.98;;;8.77;;
47519;SDS011;33252;48.122;11.538;2024-03-02T10:11:25;11.60;;;7.70;;
47519;SDS011;33252;48.122;11.538;2024-03-02T10:14:10;10.25;;;7.20;;
47519;SDS011;33252;48.122;11.538;2024-03-02T10:16:37;10.15;;;7.32;;
47519;SDS011;33252;48.122;11.538;2024-03-02T10:19:20;10.85;;;6.78;;
47519;SDS011;33252;48.122;11.538;2024-03-02T10:21:47;8.35;;;6.50;;
47519;SDS011;33252;48.122;11.538;2024-03-02T10:24:14;10.32;;;6.38;;
47519;SDS011;33252;48.122;11.538;2024-03-02T10:26:40;8.10;;;6.15;;
47519;SDS011;33252;48.122;11.538;2024-03-02T10:29:07;9.13;;;5.63;;
47519;SDS011;33252;48.122;11.538;2024-03-02T10:31:33;7.25;;;4.90;;
47519;SDS011;33252;48.122;11.538;2024-03-02T10:34:00;7.57;;;4.72;;
47519;SDS011;33252;48.122;11.538;2024-03-02T10:36:26;6.90;;;5.18;;
47519;SDS011;33252;48.122;11.538;2024-03-02T10:38:53;8.07;;;5.47;;
47519;SDS011;33252;48.122;11.538;2024-03-02T10:41:24;12.35;;;6.07;;
47519;SDS011;33252;48.122;11.538;2024-03-02T10:43:55;7.05;;;4.90;;
47519;SDS011;33252;48.122;11.538;2024-03-02T10:46:27;9.20;;;6.03;;
47519;SDS011;33252;48.122;11.538;2024-03-02T10:48:57;8.10;;;5.78;;
47519;SDS011;33252;48.122;11.538;2024-03-02T10:51:24;7.03;;;4.93;;
47519;SDS011;33252;48.122;11.538;2024-03-02T10:53:51;9.77;;;4.75;;
47519;SDS011;33252;48.122;11.538;2024-03-02T10:56:21;7.85;;;5.47;;
47519;SDS011;33252;48.122;11.538;2024-03-02T10:58:52;7.85;;;5.25;;
47519;SDS011;33252;48.122;11.538;2024-03-02T11:01:25;8.50;;;4.88;;
47519;SDS011;33252;48.122;11.538;2024-03-02T11:03:51;6.97;;;4.00;;
47519;SDS011;33252;48.122;11.538;2024-03-02T11:06:17;6.78;;;4.45;;
47519;SDS011;33252;48.122;11.538;2024-03-02T11:08:43;7.78;;;5.07;;
47519;SDS011;33252;48.122;11.538;2024-03-02T11:11:15;7.55;;;5.35;;
47519;SDS011;33252;48.122;11.538;2024-03-02T11:13:48;7.57;;;5.45;;
47519;SDS011;33252;48.122;11.538;2024-03-02T11:16:33;12.65;;;5.63;;
47519;SDS011;33252;48.122;11.538;2024-03-02T11:19:04;13.40;;;7.20;;
47519;SDS011;33252;48.122;11.538;2024-03-02T11:21:32;14.98;;;8.70;;
47519;SDS011;33252;48.122;11.538;2024-03-02T11:23:59;18.63;;;9.32;;
47519;SDS011;33252;48.122;11.538;2024-03-02T11:26:24;15.40;;;10.38;;
47519;SDS011;33252;48.122;11.538;2024-03-02T11:28:50;16.15;;;9.05;;
47519;SDS011;33252;48.122;11.538;2024-03-02T11:31:16;17.15;;;10.00;;
47519;SDS011;33252;48.122;11.538;2024-03-02T11:33:41;16.52;;;9.38;;
47519;SDS011;33252;48.122;11.538;2024-03-02T11:36:08;15.02;;;9.15;;
47519;SDS011;33252;48.122;11.538;2024-03-02T11:38:34;13.25;;;8.40;;
47519;SDS011;33252;48.122;11.538;2024-03-02T11:41:02;14.30;;;10.93;;
47519;SDS011;33252;48.122;11.538;2024-03-02T11:43:32;15.95;;;9.68;;
47519;SDS011;33252;48.122;11.538;2024-03-02T11:46:03;14.15;;;9.30;;
47519;SDS011;33252;48.122;11.538;2024-03-02T11:48:31;17.13;;;8.98;;
47519;SDS011;33252;48.122;11.538;2024-03-02T11:50:58;16.75;;;10.50;;
47519;SDS011;33252;48.122;11.538;2024-03-02T11:53:25;15.38;;;10.05;;
47519;SDS011;33252;48.122;11.538;2024-03-02T11:55:54;20.10;;;10.02;;
47519;SDS011;33252;48.122;11.538;2024-03-02T11:58:21;14.63;;;9.15;;
47519;SDS011;33252;48.122;11.538;2024-03-02T12:00:55;13.88;;;7.75;;
47519;SDS011;33252;48.122;11.538;2024-03-02T12:03:24;12.32;;;7.40;;
47519;SDS011;33252;48.122;11.538;2024-03-02T12:05:51;13.55;;;7.93;;
47519;SDS011;33252;48.122;11.538;2024-03-02T12:08:18;11.23;;;6.50;;
47519;SDS011;33252;48.122;11.538;2024-03-02T12:10:55;9.48;;;6.60;;
47519;SDS011;33252;48.122;11.538;2024-03-02T12:13:22;10.57;;;7.60;;
47519;SDS011;33252;48.122;11.538;2024-03-02T12:15:48;12.52;;;6.68;;
47519;SDS011;33252;48.122;11.538;2024-03-02T12:18:20;11.32;;;6.43;;
47519;SDS011;33252;48.122;11.538;2024-03-02T12:20:45;12.90;;;8.00;;
47519;SDS011;33252;48.122;11.538;2024-03-02T12:23:13;12.30;;;7.43;;
47519;SDS011;33252;48.122;11.538;2024-03-02T12:25:39;11.25;;;7.07;;
47519;SDS011;33252;48.122;11.538;2024-03-02T12:28:05;12.48;;;7.50;;
47519;SDS011;33252;48.122;11.538;2024-03-02T12:30:31;14.30;;;9.25;;
47519;SDS011;33252;48.122;11.538;2024-03-02T12:33:00;12.25;;;8.15;;
47519;SDS011;33252;48.122;11.538;2024-03-02T12:35:26;11.88;;;7.97;;
47519;SDS011;33252;48.122;11.538;2024-03-02T12:37:52;15.75;;;10.85;;
47519;SDS011;33252;48.122;11.538;2024-03-02T12:40:19;13.57;;;8.98;;
47519;SDS011;33252;48.122;11.538;2024-03-02T12:42:47;18.08;;;9.77;;
47519;SDS011;33252;48.122;11.538;2024-03-02T12:45:13;12.85;;;8.82;;
47519;SDS011;33252;48.122;11.538;2024-03-02T12:47:41;16.83;;;10.07;;
47519;SDS011;33252;48.122;11.538;2024-03-02T12:50:07;13.50;;;9.70;;
47519;SDS011;33252;48.122;11.538;2024-03-02T12:52:34;14.45;;;9.25;;
47519;SDS011;33252;48.122;11.538;2024-03-02T12:55:00;14.48;;;8.23;;
47519;SDS011;33252;48.122;11.538;2024-03-02T12:57:29;15.68;;;10.18;;
47519;SDS011;33252;48.122;11.538;2024-03-02T13:00:02;14.57;;;10.77;;
47519;SDS011;33252;48.122;11.538;2024-03-02T13:02:34;18.13;;;12.77;;
47519;SDS011;33252;48.122;11.538;2024-03-02T13:05:01;18.92;;;12.45;;
47519;SDS011;33252;48.122;11.538;2024-03-02T13:07:27;18.58;;;13.05;;
47519;SDS011;33252;48.122;11.538;2024-03-02T13:09:54;18.95;;;13.60;;
47519;SDS011;33252;48.122;11.538;2024-03-02T13:12:21;13.65;;;9.13;;
47519;SDS011;33252;48.122;11.538;2024-03-02T13:14:49;10.63;;;7.13;;
47519;SDS011;33252;48.122;11.538;2024-03-02T13:17:17;13.57;;;8.70;;
47519;SDS011;33252;48.122;11.538;2024-03-02T13:19:56;10.38;;;8.13;;
47519;SDS011;33252;48.122;11.538;2024-03-02T13:22:23;12.90;;;8.63;;
47519;SDS011;33252;48.122;11.538;2024-03-02T13:24:49;15.13;;;11.70;;
47519;SDS011;33252;48.122;11.538;2024-03-02T13:27:15;17.38;;;13.10;;
47519;SDS011;33252;48.122;11.538;2024-03-02T13:29:41;18.75;;;13.55;;
47519;SDS011;33252;48.122;11.538;2024-03-02T13:32:07;17.95;;;12.43;;
47519;SDS011;33252;48.122;11.538;2024-03-02T13:34:34;19.17;;;13.73;;
47519;SDS011;33252;48.122;11.538;2024-03-02T13:37:01;16.92;;;13.25;;
47519;SDS011;33252;48.122;11.538;2024-03-02T13:39:26;17.50;;;12.77;;
47519;SDS011;33252;48.122;11.538;2024-03-02T13:41:52;14.98;;;12.07;;
47519;SDS011;33252;48.122;11.538;2024-03-02T13:44:22;17.67;;;12.95;;
47519;SDS011;33252;48.122;11.538;2024-03-02T13:46:48;17.00;;;12.60;;
47519;SDS011;33252;48.122;11.538;2024-03-02T13:49:14;14.45;;;11.80;;
47519;SDS011;33252;48.122;11.538;2024-03-02T13:51:39;15.48;;;11.73;;
47519;SDS011;33252;48.122;11.538;2024-03-02T13:54:05;15.02;;;10.32;;
47519;SDS011;33252;48.122;11.538;2024-03-02T13:56:31;17.90;;;12.65;;
47519;SDS011;33252;48.122;11.538;2024-03-02T13:58:57;13.50;;;10.00;;
47519;SDS011;33252;48.122;11.538;2024-03-02T14:01:23;14.35;;;10.45;;
47519;SDS011;33252;48.122;11.538;2024-03-02T14:03:49;13.30;;;10.55;;
47519;SDS011;33252;48.122;11.538;2024-03-02T14:06:15;14.95;;;10.52;;
47519;SDS011;33252;48.122;11.538;2024-03-02T14:08:41;15.15;;;11.52;;
47519;SDS011;33252;48.122;11.538;2024-03-02T14:11:09;14.20;;;10.90;;
47519;SDS011;33252;48.122;11.538;2024-03-02T14:13:39;14.02;;;11.18;;
47519;SDS011;33252;48.122;11.538;2024-03-02T14:16:06;13.27;;;9.10;;
47519;SDS011;33252;48.122;11.538;2024-03-02T14:18:31;11.02;;;8.80;;
47519;SDS011;33252;48.122;11.538;2024-03-02T14:20:57;13.95;;;8.85;;